Time;durP1;ratioP1;P1;durP2;ratioP2;P2;SDS_P1;SDS_P2;PMS_P1;PMS_P2;Temp;Humidity;BMP_temperature;BMP_pressure;BME280_temperature;BME280_humidity;BME280_pressure;Samples;Min_cycle;Max_cycle;Signal;HPM_P1;HPM_P2
2023/06/30 00:02:24;;;;;;;4.70;2.60;;;;;;;;;;10467015;28;20511;-90
2023/06/30 00:07:28;;;;;;;6.40;3.00;;;;;;;;;;10510793;28;20036;-88
2023/06/30 00:12:32;;;;;;;3.28;2.15;;;;;;;;;;10476680;28;20049;-89
2023/06/30 00:17:36;;;;;;;2.92;1.90;;;;;;;;;;10484110;28;20098;-89
2023/06/30 00:22:40;;;;;;;3.05;2.05;;;;;;;;;;10490425;28;20044;-90
2023/06/30 00:27:44;;;;;;;3.13;1.90;;;;;;;;;;10481936;28;20102;-89
2023/06/30 00:32:47;;;;;;;3.13;1.83;;;;;;;;;;10485305;28;20040;-88
2023/06/30 00:37:52;;;;;;;3.95;2.55;;;;;;;;;;10474411;28;20573;-89
2023/06/30 00:42:55;;;;;;;5.40;2.08;;;;;;;;;;10482862;28;20098;-89
2023/06/30 00:47:59;;;;;;;2.30;1.63;;;;;;;;;;10495235;28;20067;-88
2023/06/30 00:53:04;;;;;;;3.00;2.17;;;;;;;;;;10505210;28;20712;-88
2023/06/30 00:58:07;;;;;;;4.95;2.25;;;;;;;;;;10488863;28;20049;-91
2023/06/30 01:03:16;;;;;;;2.95;2.00;;;;;;;;;;10487398;28;20427;-88
2023/06/30 01:08:26;;;;;;;4.05;2.28;;;;;;;;;;10482745;28;20139;-89
2023/06/30 01:13:32;;;;;;;3.70;2.35;;;;;;;;;;10480796;28;20127;-89
2023/06/30 01:18:36;;;;;;;3.73;2.27;;;;;;;;;;10490062;28;20131;-88
2023/06/30 01:23:48;;;;;;;3.40;2.80;;;;;;;;;;10498058;28;20050;-88
2023/06/30 01:28:52;;;;;;;3.55;2.30;;;;;;;;;;10493844;28;20047;-89
2023/06/30 01:33:55;;;;;;;4.55;2.88;;;;;;;;;;10487912;28;20063;-90
2023/06/30 01:39:00;;;;;;;4.88;2.70;;;;;;;;;;10500484;28;20051;-88
2023/06/30 01:44:04;;;;;;;4.50;2.88;;;;;;;;;;10502483;28;20124;-88
2023/06/30 01:49:08;;;;;;;3.15;2.45;;;;;;;;;;10486594;28;20037;-88
2023/06/30 01:54:13;;;;;;;2.95;2.22;;;;;;;;;;10494953;28;20051;-88
2023/06/30 01:59:16;;;;;;;3.78;2.60;;;;;;;;;;10498787;28;20106;-89
2023/06/30 02:04:19;;;;;;;4.25;2.70;;;;;;;;;;10485297;28;20489;-86
2023/06/30 02:09:24;;;;;;;2.83;2.22;;;;;;;;;;10505733;28;20501;-86
2023/06/30 02:14:30;;;;;;;5.07;2.90;;;;;;;;;;10475338;28;20501;-86
2023/06/30 02:19:33;;;;;;;3.15;2.45;;;;;;;;;;10506851;28;20138;-86
2023/06/30 02:24:38;;;;;;;4.10;2.85;;;;;;;;;;10493561;28;20063;-86
2023/06/30 02:29:41;;;;;;;3.92;2.50;;;;;;;;;;10491898;28;20138;-86
2023/06/30 02:34:44;;;;;;;3.67;2.47;;;;;;;;;;10513388;28;20145;-86
2023/06/30 02:39:49;;;;;;;3.58;2.83;;;;;;;;;;10515196;28;20097;-86
2023/06/30 02:44:52;;;;;;;4.07;2.47;;;;;;;;;;10486365;28;20128;-86
2023/06/30 02:49:56;;;;;;;3.33;2.45;;;;;;;;;;10484441;28;20408;-86
2023/06/30 02:55:02;;;;;;;4.80;2.58;;;;;;;;;;10504160;28;20075;-92
2023/06/30 03:00:07;;;;;;;4.10;2.87;;;;;;;;;;10480988;28;20076;-90
2023/06/30 03:05:11;;;;;;;4.35;2.90;;;;;;;;;;10477763;28;20056;-88
2023/06/30 03:10:17;;;;;;;3.67;2.95;;;;;;;;;;10506174;28;20110;-89
2023/06/30 03:15:20;;;;;;;5.80;3.88;;;;;;;;;;10487766;28;20603;-89
2023/06/30 03:20:24;;;;;;;7.22;4.97;;;;;;;;;;10505524;28;20044;-89
2023/06/30 03:25:28;;;;;;;9.85;6.65;;;;;;;;;;10487564;28;20480;-89
2023/06/30 03:30:32;;;;;;;13.63;7.88;;;;;;;;;;10492823;28;20051;-88
2023/06/30 03:35:36;;;;;;;15.70;9.88;;;;;;;;;;10478820;28;20128;-88
2023/06/30 03:40:40;;;;;;;12.30;8.98;;;;;;;;;;10482381;28;20159;-86
2023/06/30 03:45:44;;;;;;;11.18;7.82;;;;;;;;;;10476606;28;20454;-87
2023/06/30 03:50:52;;;;;;;9.38;5.63;;;;;;;;;;10479780;28;20063;-87
2023/06/30 03:55:58;;;;;;;6.90;4.07;;;;;;;;;;10471499;28;20089;-87
2023/06/30 04:01:02;;;;;;;5.80;3.58;;;;;;;;;;10487895;28;20044;-87
2023/06/30 04:06:06;;;;;;;5.00;3.53;;;;;;;;;;10493920;28;20086;-86
2023/06/30 04:11:13;;;;;;;5.13;3.35;;;;;;;;;;10480705;28;20408;-86
2023/06/30 04:16:17;;;;;;;4.10;2.28;;;;;;;;;;10490824;28;20052;-90
2023/06/30 04:21:21;;;;;;;4.95;2.17;;;;;;;;;;10494699;28;20498;-90
2023/06/30 04:26:26;;;;;;;2.65;1.73;;;;;;;;;;10525219;28;20172;-89
2023/06/30 04:31:29;;;;;;;2.08;1.30;;;;;;;;;;10482649;28;20121;-89
2023/06/30 05:43:51;;;;;;;1.77;1.60;;;;;;;;;;10153912;29;20052;-90
2023/06/30 05:48:54;;;;;;;0.98;0.88;;;;;;;;;;10211049;29;20043;-89
2023/06/30 05:53:58;;;;;;;0.57;0.57;;;;;;;;;;10207794;29;20047;-90
2023/06/30 05:59:09;;;;;;;1.38;0.80;;;;;;;;;;10216316;28;20048;-89
2023/06/30 06:05:01;;;;;;;1.45;0.90;;;;;;;;;;10188127;29;20047;-89
2023/06/30 06:10:08;;;;;;;0.65;0.60;;;;;;;;;;10201209;29;20044;-89
2023/06/30 06:15:14;;;;;;;0.70;0.70;;;;;;;;;;10201828;29;20054;-89
2023/06/30 06:20:17;;;;;;;1.53;0.60;;;;;;;;;;10201552;29;20075;-92
2023/06/30 06:25:21;;;;;;;0.52;0.40;;;;;;;;;;10220147;29;20054;-89
2023/06/30 06:30:26;;;;;;;0.85;0.50;;;;;;;;;;10170752;29;20051;-90
2023/06/30 06:35:30;;;;;;;0.23;0.23;;;;;;;;;;10180105;29;20047;-89
2023/06/30 06:40:33;;;;;;;1.95;0.93;;;;;;;;;;10207450;29;20039;-89
2023/06/30 06:45:38;;;;;;;0.93;0.82;;;;;;;;;;10214562;28;20047;-90
2023/06/30 06:50:42;;;;;;;0.80;0.52;;;;;;;;;;10189136;29;20043;-90
2023/06/30 06:55:46;;;;;;;0.50;0.50;;;;;;;;;;10211696;29;20050;-89
2023/06/30 07:00:52;;;;;;;0.68;0.50;;;;;;;;;;10208618;29;20127;-88
2023/06/30 07:05:56;;;;;;;;;;;;;;;;;;10197342;28;20042;-89
2023/06/30 07:10:59;;;;;;;0.70;0.55;;;;;;;;;;10208639;29;19926;-88
2023/06/30 07:16:05;;;;;;;1.17;0.50;;;;;;;;;;10189941;29;20099;-88
2023/06/30 07:21:08;;;;;;;0.70;0.60;;;;;;;;;;10225244;29;20051;-89
2023/06/30 07:26:12;;;;;;;1.25;0.60;;;;;;;;;;10218137;29;20040;-89
2023/06/30 07:31:16;;;;;;;0.50;0.50;;;;;;;;;;10210784;29;20058;-88
2023/06/30 07:36:20;;;;;;;0.93;0.60;;;;;;;;;;10207335;28;20081;-89
2023/06/30 07:41:24;;;;;;;1.00;0.70;;;;;;;;;;10219086;28;20055;-88
2023/06/30 07:46:28;;;;;;;0.90;0.77;;;;;;;;;;10200333;29;20509;-87
2023/06/30 07:51:32;;;;;;;1.60;0.98;;;;;;;;;;10223173;29;20044;-88
2023/06/30 07:56:36;;;;;;;0.88;0.70;;;;;;;;;;10226793;29;20883;-88
2023/06/30 08:01:41;;;;;;;2.58;0.90;;;;;;;;;;10207328;29;20047;-89
2023/06/30 08:06:45;;;;;;;1.50;1.30;;;;;;;;;;10197760;29;20043;-87
2023/06/30 08:11:48;;;;;;;1.40;1.13;;;;;;;;;;10217599;28;20054;-88
2023/06/30 08:16:59;;;;;;;1.58;1.38;;;;;;;;;;10210204;28;20039;-88
2023/06/30 08:22:03;;;;;;;0.80;0.80;;;;;;;;;;10209441;29;20358;-89
2023/06/30 08:27:06;;;;;;;2.35;1.17;;;;;;;;;;10220044;28;20044;-88
2023/06/30 08:32:12;;;;;;;1.58;1.05;;;;;;;;;;10215937;28;20048;-89
2023/06/30 08:37:16;;;;;;;1.00;0.80;;;;;;;;;;10215130;29;20735;-88
2023/06/30 08:42:22;;;;;;;1.50;0.80;;;;;;;;;;10231486;28;20047;-89
2023/06/30 08:47:28;;;;;;;1.65;0.80;;;;;;;;;;10220809;28;20126;-89
2023/06/30 08:52:32;;;;;;;3.15;1.80;;;;;;;;;;10198212;29;20416;-88
2023/06/30 08:57:37;;;;;;;3.65;3.15;;;;;;;;;;10205700;29;20067;-88
2023/06/30 09:02:43;;;;;;;3.50;3.10;;;;;;;;;;10217640;28;20064;-88
2023/06/30 09:07:53;;;;;;;2.60;2.38;;;;;;;;;;10211836;28;20122;-87
2023/06/30 09:12:58;;;;;;;2.80;2.42;;;;;;;;;;10215633;29;20047;-89
2023/06/30 09:18:03;;;;;;;3.67;1.60;;;;;;;;;;10194965;29;20055;-89
2023/06/30 09:23:06;;;;;;;2.38;1.27;;;;;;;;;;10222257;28;20040;-89
2023/06/30 09:28:14;;;;;;;1.13;1.02;;;;;;;;;;10202277;29;20069;-88
2023/06/30 09:33:20;;;;;;;2.97;1.50;;;;;;;;;;10210414;28;20080;-89
2023/06/30 09:38:28;;;;;;;2.65;2.30;;;;;;;;;;10217860;29;20104;-88
2023/06/30 09:43:32;;;;;;;4.65;2.40;;;;;;;;;;10190598;29;20059;-90
2023/06/30 09:48:39;;;;;;;3.35;2.20;;;;;;;;;;10224050;28;20048;-89
2023/06/30 09:53:43;;;;;;;3.78;2.40;;;;;;;;;;10217898;29;20553;-89
2023/06/30 09:58:46;;;;;;;3.45;2.72;;;;;;;;;;10220680;28;20040;-90
2023/06/30 10:03:54;;;;;;;2.40;2.20;;;;;;;;;;10215860;29;20599;-89
2023/06/30 10:08:59;;;;;;;3.00;2.53;;;;;;;;;;10216954;29;20727;-88
2023/06/30 10:14:04;;;;;;;3.60;2.90;;;;;;;;;;10215060;29;20071;-89
2023/06/30 10:19:10;;;;;;;4.20;2.97;;;;;;;;;;10203426;29;20498;-90
2023/06/30 10:24:14;;;;;;;2.45;2.22;;;;;;;;;;10191540;29;20054;-90
2023/06/30 10:29:19;;;;;;;4.80;2.60;;;;;;;;;;10215385;28;20570;-90
2023/06/30 10:34:29;;;;;;;3.58;3.28;;;;;;;;;;10205174;29;20051;-92
2023/06/30 10:39:33;;;;;;;3.58;2.92;;;;;;;;;;10237613;28;20043;-90
2023/06/30 10:44:40;;;;;;;3.33;3.03;;;;;;;;;;10518161;23;20046;-85
2023/06/30 10:49:45;;;;;;;2.67;2.45;;;;;;;;;;10300679;28;20158;-85
2023/06/30 10:54:50;;;;;;;3.00;2.60;;;;;;;;;;10298833;28;20133;-85
2023/06/30 11:00:10;;;;;;;3.05;2.42;;;;;;;;;;10300060;28;20488;-85
2023/06/30 11:05:22;;;;;;;1.90;1.73;;;;;;;;;;10293715;28;20046;-85
2023/06/30 11:10:47;;;;;;;3.38;2.35;;;;;;;;;;10315422;28;20786;-88
2023/06/30 11:16:03;;;;;;;2.63;1.70;;;;;;;;;;10305618;28;20058;-89
2023/06/30 11:21:11;;;;;;;2.63;2.10;;;;;;;;;;10322064;28;20168;-89
2023/06/30 11:26:20;;;;;;;3.95;2.83;;;;;;;;;;10301040;28;20164;-87
2023/06/30 11:31:43;;;;;;;3.17;2.05;;;;;;;;;;10299461;28;20512;-86
2023/06/30 11:37:02;;;;;;;2.30;1.90;;;;;;;;;;10300003;28;20101;-87
2023/06/30 11:42:07;;;;;;;3.40;1.70;;;;;;;;;;10303483;28;20766;-87
2023/06/30 11:47:15;;;;;;;3.33;2.35;;;;;;;;;;10288427;28;20070;-86
2023/06/30 11:52:44;;;;;;;2.30;1.95;;;;;;;;;;10306490;28;20503;-88
2023/06/30 11:57:49;;;;;;;3.08;1.80;;;;;;;;;;10289706;28;20121;-88
2023/06/30 12:03:19;;;;;;;3.13;1.60;;;;;;;;;;10311880;28;20047;-88
2023/06/30 12:08:38;;;;;;;1.00;0.80;;;;;;;;;;10300036;28;20070;-87
2023/06/30 12:14:04;;;;;;;1.02;0.93;;;;;;;;;;10283073;28;20128;-88
2023/06/30 12:19:15;;;;;;;4.10;1.90;;;;;;;;;;10315296;28;20046;-88
2023/06/30 12:24:21;;;;;;;2.78;1.90;;;;;;;;;;10298351;28;20105;-87
2023/06/30 12:29:30;;;;;;;1.48;1.00;;;;;;;;;;10298105;28;20050;-87
2023/06/30 12:34:37;;;;;;;1.77;1.02;;;;;;;;;;10295955;28;20096;-87
2023/06/30 12:39:42;;;;;;;1.63;0.70;;;;;;;;;;10306403;28;20415;-86
2023/06/30 12:44:52;;;;;;;2.83;1.40;;;;;;;;;;10301060;28;20121;-86
2023/06/30 12:49:59;;;;;;;0.98;0.65;;;;;;;;;;10322954;28;20073;-85
2023/06/30 12:55:10;;;;;;;0.98;0.73;;;;;;;;;;10302413;28;20046;-87
2023/06/30 13:00:15;;;;;;;2.70;1.05;;;;;;;;;;10306311;28;20042;-87
2023/06/30 13:05:19;;;;;;;;;;;;;;;;;;10306118;28;20515;-87
2023/06/30 13:10:24;;;;;;;1.98;1.10;;;;;;;;;;10304013;28;19922;-87
2023/06/30 13:15:29;;;;;;;1.33;0.75;;;;;;;;;;10304099;28;20042;-87
2023/06/30 13:20:34;;;;;;;1.40;0.60;;;;;;;;;;10305081;28;20550;-88
2023/06/30 13:25:39;;;;;;;1.17;0.70;;;;;;;;;;10298662;28;20467;-86
2023/06/30 13:30:47;;;;;;;2.42;1.00;;;;;;;;;;10308940;28;20101;-87
2023/06/30 13:36:05;;;;;;;1.13;0.75;;;;;;;;;;10309192;28;20415;-88
2023/06/30 13:41:11;;;;;;;1.20;0.60;;;;;;;;;;10304827;28;20065;-85
2023/06/30 13:46:15;;;;;;;;;;;;;;;;;;10322483;28;20055;-85
2023/06/30 13:51:24;;;;;;;1.20;0.88;;;;;;;;;;10308568;28;19932;-84
2023/06/30 13:56:41;;;;;;;1.55;0.70;;;;;;;;;;10318735;28;20239;-84
2023/06/30 14:01:54;;;;;;;4.53;1.30;;;;;;;;;;10298843;28;20074;-84
2023/06/30 14:07:01;;;;;;;1.75;0.88;;;;;;;;;;10299163;28;20137;-86
2023/06/30 14:12:11;;;;;;;1.20;0.70;;;;;;;;;;10297149;28;20058;-86
2023/06/30 14:17:15;;;;;;;0.82;0.50;;;;;;;;;;10312870;28;20038;-85
2023/06/30 14:22:18;;;;;;;1.55;0.68;;;;;;;;;;10297495;28;20073;-85
2023/06/30 14:27:24;;;;;;;1.10;0.65;;;;;;;;;;10303996;28;20100;-87
2023/06/30 14:32:28;;;;;;;2.72;0.90;;;;;;;;;;10304958;28;20049;-89
2023/06/30 14:37:32;;;;;;;1.48;0.65;;;;;;;;;;10304838;28;20045;-86
2023/06/30 14:42:37;;;;;;;2.20;1.17;;;;;;;;;;10309042;28;20104;-86
2023/06/30 14:47:41;;;;;;;2.85;0.93;;;;;;;;;;10299306;28;20108;-84
2023/06/30 14:52:45;;;;;;;3.33;1.30;;;;;;;;;;10296941;28;20113;-85
2023/06/30 14:57:50;;;;;;;1.40;0.80;;;;;;;;;;10294176;28;20048;-84
2023/06/30 15:02:57;;;;;;;1.73;0.90;;;;;;;;;;10312992;28;20054;-85
2023/06/30 15:08:00;;;;;;;2.00;1.00;;;;;;;;;;10296828;28;20052;-85
2023/06/30 15:13:05;;;;;;;1.33;0.95;;;;;;;;;;10296096;28;20974;-85
2023/06/30 15:18:09;;;;;;;1.13;0.57;;;;;;;;;;10313942;28;20051;-85
2023/06/30 15:23:12;;;;;;;1.45;0.70;;;;;;;;;;10295763;28;20058;-86
2023/06/30 15:28:17;;;;;;;2.25;0.80;;;;;;;;;;10314829;28;20109;-85
2023/06/30 15:33:21;;;;;;;1.45;0.57;;;;;;;;;;10296767;28;20047;-86
2023/06/30 15:38:25;;;;;;;1.17;0.40;;;;;;;;;;10313951;28;20061;-86
2023/06/30 15:43:29;;;;;;;1.10;0.40;;;;;;;;;;10296112;28;20050;-84
2023/06/30 15:48:33;;;;;;;1.80;0.83;;;;;;;;;;10313872;28;20046;-85
2023/06/30 15:53:36;;;;;;;0.85;0.47;;;;;;;;;;10296132;28;20056;-85
2023/06/30 15:58:41;;;;;;;1.38;0.40;;;;;;;;;;10313434;28;20058;-85
2023/06/30 16:03:45;;;;;;;0.40;0.30;;;;;;;;;;10299364;28;20062;-90
2023/06/30 16:08:50;;;;;;;1.92;0.50;;;;;;;;;;10302752;28;20097;-87
2023/06/30 16:13:55;;;;;;;1.10;0.60;;;;;;;;;;10320086;28;20056;-87
2023/06/30 16:18:59;;;;;;;1.70;0.80;;;;;;;;;;10301170;28;20081;-87
2023/06/30 16:24:02;;;;;;;1.73;0.55;;;;;;;;;;10326354;28;21009;-88
2023/06/30 16:29:07;;;;;;;9.60;1.10;;;;;;;;;;10309627;28;20050;-86
2023/06/30 16:34:11;;;;;;;1.20;0.60;;;;;;;;;;10342162;23;20050;-87
2023/06/30 16:39:14;;;;;;;2.72;1.33;;;;;;;;;;10316320;28;20113;-88
2023/06/30 16:44:19;;;;;;;1.80;0.95;;;;;;;;;;10315088;28;20133;-87
2023/06/30 16:49:22;;;;;;;1.63;0.68;;;;;;;;;;10315215;28;20089;-87
2023/06/30 16:54:26;;;;;;;2.08;0.60;;;;;;;;;;10294842;28;20098;-87
2023/06/30 16:59:30;;;;;;;0.70;0.40;;;;;;;;;;10312309;28;20057;-87
2023/06/30 17:04:37;;;;;;;2.05;0.40;;;;;;;;;;10326980;28;20046;-87
2023/06/30 17:09:40;;;;;;;1.75;0.70;;;;;;;;;;10275151;28;20058;-88
2023/06/30 17:14:45;;;;;;;0.35;0.32;;;;;;;;;;10275159;28;20117;-88
2023/06/30 17:19:49;;;;;;;1.45;0.70;;;;;;;;;;10274844;28;20113;-87
2023/06/30 17:24:52;;;;;;;2.45;0.70;;;;;;;;;;10306566;28;20100;-87
2023/06/30 17:29:57;;;;;;;0.52;0.40;;;;;;;;;;10337459;28;20045;-87
2023/06/30 17:35:01;;;;;;;0.32;0.30;;;;;;;;;;10313243;28;20046;-86
2023/06/30 17:40:05;;;;;;;0.38;0.20;;;;;;;;;;10314196;28;20046;-86
2023/06/30 17:45:11;;;;;;;0.70;0.40;;;;;;;;;;10331122;28;20046;-87
2023/06/30 17:50:16;;;;;;;0.40;0.40;;;;;;;;;;10331497;28;20521;-87
2023/06/30 17:55:20;;;;;;;0.68;0.40;;;;;;;;;;10313179;28;20092;-86
2023/06/30 18:00:25;;;;;;;0.93;0.50;;;;;;;;;;10313378;28;20707;-87
2023/06/30 18:05:28;;;;;;;0.80;0.55;;;;;;;;;;10330626;28;20709;-87
2023/06/30 18:10:32;;;;;;;1.23;0.50;;;;;;;;;;10313108;28;20042;-87
2023/06/30 18:15:37;;;;;;;2.25;0.43;;;;;;;;;;10312580;28;20077;-87
2023/06/30 18:20:40;;;;;;;0.65;0.45;;;;;;;;;;10312778;28;20054;-87
2023/06/30 18:25:44;;;;;;;0.50;0.30;;;;;;;;;;10312821;28;20050;-87
2023/06/30 18:30:49;;;;;;;0.73;0.50;;;;;;;;;;10321953;28;20050;-87
2023/06/30 18:35:52;;;;;;;0.60;0.30;;;;;;;;;;10312205;28;20061;-87
2023/06/30 18:40:56;;;;;;;1.38;0.50;;;;;;;;;;10311032;28;20042;-87
2023/06/30 18:46:02;;;;;;;1.77;0.30;;;;;;;;;;10311957;28;20046;-87
2023/06/30 18:51:06;;;;;;;0.63;0.40;;;;;;;;;;10319636;28;20501;-87
2023/06/30 18:56:09;;;;;;;0.82;0.40;;;;;;;;;;10328862;28;20046;-88
2023/06/30 19:01:14;;;;;;;0.57;0.28;;;;;;;;;;10329235;28;20038;-86
2023/06/30 19:06:17;;;;;;;0.43;0.32;;;;;;;;;;10328561;28;20116;-87
2023/06/30 19:11:21;;;;;;;1.52;0.60;;;;;;;;;;10328456;28;20042;-87
2023/06/30 19:16:25;;;;;;;1.15;0.30;;;;;;;;;;10299544;28;20055;-86
2023/06/30 19:21:29;;;;;;;0.65;0.50;;;;;;;;;;10270571;28;20034;-87
2023/06/30 19:26:32;;;;;;;0.77;0.50;;;;;;;;;;10287313;28;20047;-86
2023/06/30 19:31:37;;;;;;;0.45;0.43;;;;;;;;;;10307391;28;20100;-87
2023/06/30 19:36:41;;;;;;;0.53;0.50;;;;;;;;;;10310088;28;20050;-86
2023/06/30 19:41:45;;;;;;;1.10;0.50;;;;;;;;;;10327002;28;20687;-87
2023/06/30 19:46:49;;;;;;;0.95;0.60;;;;;;;;;;10309707;28;20042;-86
2023/06/30 19:51:53;;;;;;;1.30;0.52;;;;;;;;;;10308934;28;20050;-86
2023/06/30 19:56:56;;;;;;;1.00;0.60;;;;;;;;;;10309494;28;20178;-86
2023/06/30 20:02:01;;;;;;;1.33;0.55;;;;;;;;;;10309154;28;20046;-87
2023/06/30 20:07:06;;;;;;;;;;;;;;;;;;10309712;28;20502;-86
2023/06/30 20:12:11;;;;;;;0.88;0.60;;;;;;;;;;10308227;28;19921;-87
2023/06/30 20:17:16;;;;;;;1.35;0.93;;;;;;;;;;10286405;28;20054;-86
2023/06/30 20:22:19;;;;;;;0.90;0.75;;;;;;;;;;10326291;28;20154;-86
2023/06/30 20:27:23;;;;;;;1.08;0.80;;;;;;;;;;10308919;28;20568;-86
2023/06/30 20:32:28;;;;;;;1.88;0.88;;;;;;;;;;10308720;28;20058;-87
2023/06/30 20:37:31;;;;;;;1.20;0.60;;;;;;;;;;10309138;28;20049;-87
2023/06/30 20:42:34;;;;;;;0.55;0.55;;;;;;;;;;10309105;28;20046;-86
2023/06/30 20:47:39;;;;;;;1.90;0.88;;;;;;;;;;10326687;28;20108;-87
2023/06/30 20:52:43;;;;;;;0.65;0.45;;;;;;;;;;10309888;28;20053;-86
2023/06/30 20:57:46;;;;;;;0.82;0.70;;;;;;;;;;10327362;28;20062;-87
2023/06/30 21:02:51;;;;;;;1.45;0.70;;;;;;;;;;10311333;28;20141;-86
2023/06/30 21:07:55;;;;;;;1.45;0.70;;;;;;;;;;10316236;28;20065;-86
2023/06/30 21:13:00;;;;;;;2.03;0.80;;;;;;;;;;10324794;28;20069;-85
2023/06/30 21:18:06;;;;;;;2.42;0.68;;;;;;;;;;10334054;28;20057;-86
2023/06/30 21:23:09;;;;;;;1.93;0.67;;;;;;;;;;10316157;28;20449;-86
2023/06/30 21:28:12;;;;;;;1.15;0.60;;;;;;;;;;10315589;28;20101;-86
2023/06/30 21:33:17;;;;;;;1.55;0.60;;;;;;;;;;10331816;28;20070;-86
2023/06/30 21:38:21;;;;;;;1.38;0.70;;;;;;;;;;10314869;28;20504;-86
2023/06/30 21:43:24;;;;;;;1.10;0.60;;;;;;;;;;10332446;28;20529;-86
2023/06/30 21:48:29;;;;;;;1.05;0.70;;;;;;;;;;10315272;28;20046;-86
2023/06/30 21:53:33;;;;;;;2.90;0.50;;;;;;;;;;10331604;28;20046;-86
2023/06/30 21:58:36;;;;;;;0.93;0.57;;;;;;;;;;10351077;28;20097;-86
2023/06/30 22:03:41;;;;;;;0.52;0.40;;;;;;;;;;10372352;28;20424;-86
2023/06/30 22:08:45;;;;;;;0.73;0.60;;;;;;;;;;10326310;28;20058;-87
2023/06/30 22:13:48;;;;;;;1.02;0.50;;;;;;;;;;10323832;28;20050;-86
2023/06/30 22:18:53;;;;;;;0.77;0.63;;;;;;;;;;10329777;28;20108;-86
2023/06/30 22:23:56;;;;;;;0.73;0.60;;;;;;;;;;10274144;28;20049;-86
2023/06/30 22:29:00;;;;;;;0.90;0.50;;;;;;;;;;10287724;28;20062;-86
2023/06/30 22:34:25;;;;;;;;;;;;;;;;;;;;;
2023/06/30 23:00:15;;;;;;;0.63;0.60;;;;;;;;;;9908151;29;20046;-80
